createdAt,value
2023-04-16T00:03:16.532Z,2.04
2023-04-16T00:13:19.991Z,1.83
2023-04-16T00:23:25.153Z,1.63
2023-04-16T00:33:30.319Z,1.47
2023-04-16T00:43:33.348Z,1.44
2023-04-16T00:53:36.674Z,1.22
2023-04-16T01:03:45.835Z,1.13
2023-04-16T01:13:49.260Z,1.25
2023-04-16T01:23:53.069Z,1.31
2023-04-16T01:33:56.201Z,1.22
2023-04-16T01:43:59.874Z,1.08
2023-04-16T01:54:03.146Z,0.96
2023-04-16T02:04:07.560Z,1.04
2023-04-16T02:14:10.795Z,0.87
2023-04-16T02:24:14.124Z,0.95
2023-04-16T02:34:18.284Z,0.90
2023-04-16T02:44:21.555Z,0.83
2023-04-16T02:54:24.680Z,0.74
2023-04-16T03:04:27.861Z,0.71
2023-04-16T03:14:31.405Z,0.62
2023-04-16T03:24:34.491Z,0.52
2023-04-16T03:34:37.592Z,0.40
2023-04-16T03:44:41.045Z,0.29
2023-04-16T03:54:45.469Z,0.34
2023-04-16T04:04:57.989Z,0.40
2023-04-16T04:15:01.110Z,0.58
2023-04-16T04:25:04.449Z,0.57
2023-04-16T04:35:09.110Z,0.62
2023-04-16T04:45:12.590Z,0.73
2023-04-16T04:55:17.036Z,0.91
2023-04-16T05:05:20.530Z,1.24
2023-04-16T05:15:23.689Z,1.65
2023-04-16T05:25:26.803Z,2.07
2023-04-16T05:35:29.878Z,2.45
2023-04-16T05:45:33.586Z,2.84
2023-04-16T05:55:39.190Z,3.28
2023-04-16T06:05:42.510Z,3.77
2023-04-16T06:15:45.758Z,4.22
2023-04-16T06:25:59.617Z,4.71
2023-04-16T06:36:04.748Z,5.40
2023-04-16T06:46:08.034Z,7.19
2023-04-16T06:56:11.557Z,9.57
2023-04-16T07:06:14.762Z,11.55
2023-04-16T07:16:20.808Z,13.03
2023-04-16T07:26:24.479Z,14.40
2023-04-16T07:36:28.593Z,15.31
2023-04-16T07:46:43.621Z,15.80
2023-04-16T07:56:51.542Z,15.17
2023-04-16T08:06:56.699Z,14.52
2023-04-16T08:17:02.736Z,14.23
2023-04-16T08:38:32.413Z,14.53
2023-04-16T08:48:37.330Z,14.88
2023-04-16T08:58:40.508Z,15.40
2023-04-16T09:08:46.693Z,15.38
2023-04-16T09:18:49.819Z,15.32
2023-04-16T09:28:52.888Z,15.47
2023-04-16T09:38:57.781Z,15.06
2023-04-16T09:49:18.800Z,14.52
2023-04-16T09:59:23.896Z,14.34
2023-04-16T10:09:32.429Z,14.11
2023-04-16T10:19:36.263Z,14.18
2023-04-16T10:29:39.633Z,14.55
2023-04-16T10:39:42.735Z,14.75
2023-04-16T10:49:48.318Z,15.05
2023-04-16T10:59:51.505Z,15.05
2023-04-16T11:09:54.611Z,15.13
2023-04-16T11:19:57.856Z,15.63
2023-04-16T11:30:06.126Z,15.70
2023-04-16T11:40:09.793Z,16.01
2023-04-16T11:50:20.483Z,16.34
2023-04-16T12:00:24.993Z,16.30
2023-04-16T12:10:28.679Z,16.07
2023-04-16T12:20:40.488Z,16.26
2023-04-16T12:41:19.027Z,16.57
2023-04-16T12:51:22.186Z,16.78
2023-04-16T13:01:25.665Z,16.79
2023-04-16T13:11:28.954Z,16.83
2023-04-16T13:21:32.412Z,16.80
2023-04-16T13:31:35.709Z,16.70
2023-04-16T13:41:39.245Z,16.70
2023-04-16T13:51:45.442Z,16.61
2023-04-16T14:01:48.517Z,16.51
2023-04-16T14:11:51.796Z,16.53
2023-04-16T14:21:54.933Z,16.40
2023-04-16T14:31:57.954Z,16.32
2023-04-16T14:42:01.053Z,16.25
2023-04-16T14:52:05.816Z,16.25
2023-04-16T15:02:10.101Z,16.43
2023-04-16T15:12:13.245Z,16.23
2023-04-16T15:22:16.969Z,16.10
2023-04-16T15:32:20.072Z,15.98
2023-04-16T15:42:24.459Z,15.77
2023-04-16T15:52:27.989Z,15.49
2023-04-16T16:02:31.604Z,15.25
2023-04-16T16:12:35.848Z,15.00
2023-04-16T16:22:39.358Z,14.68
2023-04-16T16:32:44.133Z,14.33
2023-04-16T16:43:19.261Z,13.99
2023-04-16T16:53:23.744Z,13.64
2023-04-16T17:03:26.868Z,13.35
2023-04-16T17:13:32.830Z,13.05
2023-04-16T17:23:35.997Z,12.69
2023-04-16T17:33:39.137Z,12.18
2023-04-16T17:43:43.219Z,11.60
2023-04-16T17:53:46.401Z,10.89
2023-04-16T18:03:49.804Z,10.30
2023-04-16T18:13:54.105Z,9.77
2023-04-16T18:23:57.917Z,9.23
2023-04-16T18:34:01.005Z,8.74
2023-04-16T18:44:04.201Z,8.40
2023-04-16T18:54:07.352Z,8.11
2023-04-16T19:04:10.713Z,7.80
2023-04-16T19:14:14.085Z,7.67
2023-04-16T19:24:17.169Z,7.58
2023-04-16T19:34:20.833Z,7.63
2023-04-16T19:44:23.916Z,7.47
2023-04-16T19:54:27.493Z,7.23
2023-04-16T20:04:30.614Z,7.06
2023-04-16T20:14:33.772Z,6.93
2023-04-16T20:24:38.648Z,6.73
2023-04-16T20:35:14.495Z,6.52
2023-04-16T20:45:18.941Z,6.23
2023-04-16T20:55:22.143Z,6.05
2023-04-16T21:05:26.673Z,5.83
2023-04-16T21:15:31.037Z,5.62
2023-04-16T21:25:34.905Z,5.53
2023-04-16T21:35:38.863Z,5.38
2023-04-16T21:45:42.824Z,5.31
2023-04-16T21:55:45.936Z,5.28
2023-04-16T22:05:49.280Z,5.01
2023-04-16T22:15:53.187Z,4.80
2023-04-16T22:25:56.726Z,4.51
2023-04-16T22:36:00.243Z,4.41
2023-04-16T22:46:06.764Z,4.36
2023-04-16T22:56:09.877Z,4.20
2023-04-16T23:06:12.916Z,4.04
2023-04-16T23:16:16.146Z,3.74
2023-04-16T23:26:22.740Z,3.48
2023-04-16T23:36:27.084Z,3.44
2023-04-16T23:46:30.221Z,3.41
2023-04-16T23:56:33.364Z,3.33
